sensor_id;sensor_type;location;lat;lon;timestamp;pressure;altitude;pressure_sealevel;temperature;humidity
62011;BME280;47967;51.756;10.174;2024-03-08T05:03:57;100030.19;;;-3.31;100.00
62011;BME280;47967;51.756;10.174;2024-03-08T05:08:06;100028.50;;;-3.45;100.00
62011;BME280;47967;51.756;10.174;2024-03-08T05:12:08;100026.41;;;-3.52;100.00
62011;BME280;47967;51.756;10.174;2024-03-08T05:16:11;100023.53;;;-3.49;100.00
62011;BME280;47967;51.756;10.174;2024-03-08T05:20:18;100021.44;;;-3.57;100.00
62011;BME280;47967;51.756;10.174;2024-03-08T05:24:20;100026.88;;;-3.60;100.00
62011;BME280;47967;51.756;10.174;2024-03-08T05:28:23;100018.44;;;-3.65;100.00
62011;BME280;47967;51.756;10.174;2024-03-08T05:32:28;100024.88;;;-3.70;100.00
62011;BME280;47967;51.756;10.174;2024-03-08T05:36:33;100018.66;;;-3.68;100.00
62011;BME280;47967;51.756;10.174;2024-03-08T05:40:36;100018.09;;;-3.74;100.00
62011;BME280;47967;51.756;10.174;2024-03-08T05:44:39;100014.00;;;-3.78;100.00
62011;BME280;47967;51.756;10.174;2024-03-08T05:48:42;100014.28;;;-3.82;100.00
62011;BME280;47967;51.756;10.174;2024-03-08T05:52:46;100013.34;;;-3.81;100.00
62011;BME280;47967;51.756;10.174;2024-03-08T05:56:51;100012.94;;;-3.75;100.00
62011;BME280;47967;51.756;10.174;2024-03-08T06:00:54;100023.84;;;-3.67;100.00
62011;BME280;47967;51.756;10.174;2024-03-08T06:04:57;100022.78;;;-3.64;100.00
62011;BME280;47967;51.756;10.174;2024-03-08T06:09:01;100024.06;;;-3.57;100.00
62011;BME280;47967;51.756;10.174;2024-03-08T06:13:11;100025.66;;;-3.55;100.00
62011;BME280;47967;51.756;10.174;2024-03-08T06:17:13;100024.19;;;-3.46;100.00
62011;BME280;47967;51.756;10.174;2024-03-08T06:21:16;100025.56;;;-3.40;100.00
62011;BME280;47967;51.756;10.174;2024-03-08T06:25:20;100016.38;;;-3.34;100.00
62011;BME280;47967;51.756;10.174;2024-03-08T06:29:23;100019.84;;;-3.21;100.00
62011;BME280;47967;51.756;10.174;2024-03-08T06:33:25;100017.97;;;-3.19;100.00
62011;BME280;47967;51.756;10.174;2024-03-08T06:37:29;100017.47;;;-3.11;100.00
62011;BME280;47967;51.756;10.174;2024-03-08T06:41:34;100015.97;;;-3.02;100.00
62011;BME280;47967;51.756;10.174;2024-03-08T06:45:38;100024.94;;;-2.92;100.00
62011;BME280;47967;51.756;10.174;2024-03-08T06:49:41;100020.16;;;-2.74;100.00
62011;BME280;47967;51.756;10.174;2024-03-08T06:53:43;100022.88;;;-2.63;100.00
62011;BME280;47967;51.756;10.174;2024-03-08T06:57:48;100025.25;;;-2.47;100.00
62011;BME280;47967;51.756;10.174;2024-03-08T07:01:50;100020.06;;;-2.35;100.00
62011;BME280;47967;51.756;10.174;2024-03-08T07:05:55;100024.75;;;-2.15;100.00
62011;BME280;47967;51.756;10.174;2024-03-08T07:09:59;100021.22;;;-2.02;100.00
62011;BME280;47967;51.756;10.174;2024-03-08T07:14:03;100016.63;;;-1.76;100.00
62011;BME280;47967;51.756;10.174;2024-03-08T07:18:07;100022.47;;;-1.59;100.00
62011;BME280;47967;51.756;10.174;2024-03-08T07:22:16;100018.91;;;-1.36;100.00
62011;BME280;47967;51.756;10.174;2024-03-08T07:26:19;100020.25;;;-1.19;100.00
62011;BME280;47967;51.756;10.174;2024-03-08T07:30:23;100012.00;;;-0.91;100.00
62011;BME280;47967;51.756;10.174;2024-03-08T07:34:55;100008.97;;;-0.64;100.00
62011;BME280;47967;51.756;10.174;2024-03-08T07:38:58;100011.72;;;-0.54;100.00
62011;BME280;47967;51.756;10.174;2024-03-08T07:43:01;99993.38;;;-0.35;100.00
62011;BME280;47967;51.756;10.174;2024-03-08T07:47:05;99985.53;;;-0.13;100.00
62011;BME280;47967;51.756;10.174;2024-03-08T07:51:10;99993.97;;;0.13;100.00
62011;BME280;47967;51.756;10.174;2024-03-08T07:55:13;99985.44;;;0.30;100.00
62011;BME280;47967;51.756;10.174;2024-03-08T07:59:16;99974.13;;;0.50;100.00
62011;BME280;47967;51.756;10.174;2024-03-08T08:03:20;99977.31;;;0.74;100.00
62011;BME280;47967;51.756;10.174;2024-03-08T08:07:23;99972.97;;;0.94;100.00
62011;BME280;47967;51.756;10.174;2024-03-08T08:11:26;99969.69;;;1.12;100.00
62011;BME280;47967;51.756;10.174;2024-03-08T08:15:29;99966.81;;;1.25;100.00
62011;BME280;47967;51.756;10.174;2024-03-08T08:19:33;99960.56;;;1.46;100.00
62011;BME280;47967;51.756;10.174;2024-03-08T08:23:36;99967.16;;;1.61;100.00
62011;BME280;47967;51.756;10.174;2024-03-08T08:27:39;99960.88;;;1.82;100.00
62011;BME280;47967;51.756;10.174;2024-03-08T08:31:43;99959.25;;;2.20;100.00
62011;BME280;47967;51.756;10.174;2024-03-08T08:35:47;99938.53;;;2.61;100.00
62011;BME280;47967;51.756;10.174;2024-03-08T08:39:53;99940.53;;;3.07;100.00
62011;BME280;47967;51.756;10.174;2024-03-08T08:43:55;99937.84;;;3.34;100.00
62011;BME280;47967;51.756;10.174;2024-03-08T08:48:14;99929.66;;;3.64;100.00
62011;BME280;47967;51.756;10.174;2024-03-08T08:52:19;99938.34;;;3.84;100.00
62011;BME280;47967;51.756;10.174;2024-03-08T08:56:22;99925.09;;;3.92;100.00
62011;BME280;47967;51.756;10.174;2024-03-08T09:00:24;99919.22;;;4.07;100.00
62011;BME280;47967;51.756;10.174;2024-03-08T09:04:29;99908.97;;;4.20;100.00
62011;BME280;47967;51.756;10.174;2024-03-08T09:08:34;99909.78;;;4.39;100.00
62011;BME280;47967;51.756;10.174;2024-03-08T09:12:36;99905.53;;;4.54;100.00
62011;BME280;47967;51.756;10.174;2024-03-08T09:16:40;99895.94;;;4.70;99.60
62011;BME280;47967;51.756;10.174;2024-03-08T09:20:43;99898.69;;;4.86;98.15
62011;BME280;47967;51.756;10.174;2024-03-08T09:24:47;99884.56;;;5.02;95.57
62011;BME280;47967;51.756;10.174;2024-03-08T09:28:49;99880.59;;;5.15;95.73
62011;BME280;47967;51.756;10.174;2024-03-08T09:32:52;99874.75;;;5.19;93.06
62011;BME280;47967;51.756;10.174;2024-03-08T09:36:58;99867.09;;;5.24;90.24
62011;BME280;47967;51.756;10.174;2024-03-08T09:41:02;99855.41;;;5.34;89.18
62011;BME280;47967;51.756;10.174;2024-03-08T09:45:06;99856.78;;;5.54;89.76
62011;BME280;47967;51.756;10.174;2024-03-08T09:49:12;99844.59;;;5.76;91.29
62011;BME280;47967;51.756;10.174;2024-03-08T09:53:14;99839.75;;;5.88;89.31
62011;BME280;47967;51.756;10.174;2024-03-08T09:57:19;99829.41;;;6.02;86.16
62011;BME280;47967;51.756;10.174;2024-03-08T10:01:22;99822.50;;;5.99;87.83
62011;BME280;47967;51.756;10.174;2024-03-08T10:05:25;99816.47;;;6.14;86.11
62011;BME280;47967;51.756;10.174;2024-03-08T10:09:27;99819.00;;;6.15;87.13
62011;BME280;47967;51.756;10.174;2024-03-08T10:13:31;99809.25;;;6.31;85.02
62011;BME280;47967;51.756;10.174;2024-03-08T10:17:34;99808.00;;;6.58;83.84
62011;BME280;47967;51.756;10.174;2024-03-08T10:21:46;99798.19;;;6.73;80.14
62011;BME280;47967;51.756;10.174;2024-03-08T10:25:50;99785.03;;;6.95;81.84
62011;BME280;47967;51.756;10.174;2024-03-08T10:29:54;99777.91;;;7.11;77.93
62011;BME280;47967;51.756;10.174;2024-03-08T10:33:56;99787.00;;;7.01;75.36
62011;BME280;47967;51.756;10.174;2024-03-08T10:37:59;99770.38;;;7.06;75.56
62011;BME280;47967;51.756;10.174;2024-03-08T10:42:05;99780.13;;;7.30;74.15
62011;BME280;47967;51.756;10.174;2024-03-08T10:46:16;99776.53;;;7.61;71.20
62011;BME280;47967;51.756;10.174;2024-03-08T10:50:24;99770.56;;;7.74;72.96
62011;BME280;47967;51.756;10.174;2024-03-08T10:54:26;99767.72;;;7.91;71.94
62011;BME280;47967;51.756;10.174;2024-03-08T10:58:29;99759.13;;;8.10;70.54
62011;BME280;47967;51.756;10.174;2024-03-08T11:02:34;99758.75;;;8.28;62.94
62011;BME280;47967;51.756;10.174;2024-03-08T11:06:55;99751.34;;;8.45;67.09
62011;BME280;47967;51.756;10.174;2024-03-08T11:11:04;99748.09;;;8.65;60.85
62011;BME280;47967;51.756;10.174;2024-03-08T11:15:09;99740.88;;;8.51;59.75
62011;BME280;47967;51.756;10.174;2024-03-08T11:19:23;99727.03;;;8.69;60.89
62011;BME280;47967;51.756;10.174;2024-03-08T11:23:28;99714.53;;;8.97;59.22
62011;BME280;47967;51.756;10.174;2024-03-08T11:27:32;99712.47;;;9.21;59.85
62011;BME280;47967;51.756;10.174;2024-03-08T11:31:35;99707.53;;;9.47;59.68
62011;BME280;47967;51.756;10.174;2024-03-08T11:35:38;99701.00;;;9.56;57.50
62011;BME280;47967;51.756;10.174;2024-03-08T11:39:47;99687.19;;;9.66;56.39
62011;BME280;47967;51.756;10.174;2024-03-08T11:44:01;99680.81;;;9.73;55.33
62011;BME280;47967;51.756;10.174;2024-03-08T11:48:06;99684.22;;;9.89;55.19
62011;BME280;47967;51.756;10.174;2024-03-08T11:52:10;99674.84;;;10.13;54.11
62011;BME280;47967;51.756;10.174;2024-03-08T11:56:15;99676.13;;;10.24;53.86
62011;BME280;47967;51.756;10.174;2024-03-08T12:00:19;99665.25;;;10.04;53.89
62011;BME280;47967;51.756;10.174;2024-03-08T12:04:24;99666.69;;;10.06;55.18
62011;BME280;47967;51.756;10.174;2024-03-08T12:08:27;99654.31;;;10.12;54.16
62011;BME280;47967;51.756;10.174;2024-03-08T12:12:33;99650.31;;;10.01;54.40
62011;BME280;47967;51.756;10.174;2024-03-08T12:16:36;99643.53;;;10.19;53.86
62011;BME280;47967;51.756;10.174;2024-03-08T12:20:39;99639.72;;;10.41;53.98
62011;BME280;47967;51.756;10.174;2024-03-08T12:24:45;99630.91;;;10.19;54.46
62011;BME280;47967;51.756;10.174;2024-03-08T12:29:17;99620.25;;;10.04;56.82
62011;BME280;47967;51.756;10.174;2024-03-08T12:33:21;99622.19;;;10.17;54.78
62011;BME280;47967;51.756;10.174;2024-03-08T12:37:25;99618.25;;;10.20;53.85
62011;BME280;47967;51.756;10.174;2024-03-08T12:41:27;99612.00;;;10.13;55.55
62011;BME280;47967;51.756;10.174;2024-03-08T12:45:31;99604.16;;;10.31;55.16
62011;BME280;47967;51.756;10.174;2024-03-08T12:49:34;99596.06;;;10.31;56.52
62011;BME280;47967;51.756;10.174;2024-03-08T12:53:37;99583.75;;;10.02;56.91
62011;BME280;47967;51.756;10.174;2024-03-08T12:57:42;99576.09;;;10.05;58.63
62011;BME280;47967;51.756;10.174;2024-03-08T13:01:46;99583.75;;;10.02;59.43
62011;BME280;47967;51.756;10.174;2024-03-08T13:05:49;99577.25;;;9.89;59.64
62011;BME280;47967;51.756;10.174;2024-03-08T13:09:52;99570.69;;;10.05;59.67
62011;BME280;47967;51.756;10.174;2024-03-08T13:13:54;99566.63;;;10.23;59.81
62011;BME280;47967;51.756;10.174;2024-03-08T13:18:02;99560.16;;;10.24;58.62
62011;BME280;47967;51.756;10.174;2024-03-08T13:22:07;99564.06;;;10.08;58.29
62011;BME280;47967;51.756;10.174;2024-03-08T13:26:13;99560.41;;;10.29;59.22
62011;BME280;47967;51.756;10.174;2024-03-08T13:30:17;99557.28;;;10.32;58.84
62011;BME280;47967;51.756;10.174;2024-03-08T13:34:21;99544.84;;;10.24;57.83
62011;BME280;47967;51.756;10.174;2024-03-08T13:38:30;99545.47;;;10.33;59.13
62011;BME280;47967;51.756;10.174;2024-03-08T13:42:33;99538.66;;;10.37;58.11
62011;BME280;47967;51.756;10.174;2024-03-08T13:46:37;99530.19;;;10.54;59.24
62011;BME280;47967;51.756;10.174;2024-03-08T13:50:41;99525.00;;;10.59;57.37
62011;BME280;47967;51.756;10.174;2024-03-08T13:54:43;99523.34;;;10.58;55.12
62011;BME280;47967;51.756;10.174;2024-03-08T13:58:46;99509.03;;;10.64;56.80
62011;BME280;47967;51.756;10.174;2024-03-08T14:02:52;99502.41;;;10.67;57.17
62011;BME280;47967;51.756;10.174;2024-03-08T14:06:56;99493.69;;;10.65;58.07
62011;BME280;47967;51.756;10.174;2024-03-08T14:11:04;99482.47;;;10.88;58.01
62011;BME280;47967;51.756;10.174;2024-03-08T14:15:12;99484.31;;;11.08;55.66
62011;BME280;47967;51.756;10.174;2024-03-08T14:19:15;99485.91;;;11.29;54.88
62011;BME280;47967;51.756;10.174;2024-03-08T14:23:19;99487.75;;;11.35;56.05
62011;BME280;47967;51.756;10.174;2024-03-08T14:27:23;99475.78;;;11.17;56.37
62011;BME280;47967;51.756;10.174;2024-03-08T14:31:26;99482.00;;;11.18;55.45
62011;BME280;47967;51.756;10.174;2024-03-08T14:35:29;99474.84;;;11.50;53.25
62011;BME280;47967;51.756;10.174;2024-03-08T14:39:33;99470.88;;;11.60;53.81
62011;BME280;47967;51.756;10.174;2024-03-08T14:43:36;99468.16;;;11.60;53.52
62011;BME280;47967;51.756;10.174;2024-03-08T14:47:39;99464.31;;;11.81;53.60
62011;BME280;47967;51.756;10.174;2024-03-08T14:51:41;99458.03;;;11.94;51.48
62011;BME280;47967;51.756;10.174;2024-03-08T14:55:46;99461.75;;;11.99;50.53
62011;BME280;47967;51.756;10.174;2024-03-08T14:59:49;99449.25;;;12.05;50.14
62011;BME280;47967;51.756;10.174;2024-03-08T15:03:52;99454.50;;;12.00;49.80
62011;BME280;47967;51.756;10.174;2024-03-08T15:07:55;99435.56;;;12.25;50.98
62011;BME280;47967;51.756;10.174;2024-03-08T15:11:59;99433.16;;;12.42;51.01
62011;BME280;47967;51.756;10.174;2024-03-08T15:16:02;99430.13;;;12.32;50.71
62011;BME280;47967;51.756;10.174;2024-03-08T15:20:07;99425.59;;;12.26;49.96
62011;BME280;47967;51.756;10.174;2024-03-08T15:24:57;99433.47;;;12.34;50.40
62011;BME280;47967;51.756;10.174;2024-03-08T15:29:02;99421.78;;;12.33;50.05
62011;BME280;47967;51.756;10.174;2024-03-08T15:33:06;99415.59;;;12.26;50.63
62011;BME280;47967;51.756;10.174;2024-03-08T15:37:12;99418.75;;;12.23;50.78
62011;BME280;47967;51.756;10.174;2024-03-08T15:41:18;99422.78;;;12.14;51.28
62011;BME280;47967;51.756;10.174;2024-03-08T15:45:23;99416.56;;;12.07;51.75
62011;BME280;47967;51.756;10.174;2024-03-08T15:49:28;99416.81;;;11.98;52.13
62011;BME280;47967;51.756;10.174;2024-03-08T15:53:30;99408.38;;;11.81;51.94
62011;BME280;47967;51.756;10.174;2024-03-08T15:57:33;99401.38;;;11.74;53.16
62011;BME280;47967;51.756;10.174;2024-03-08T16:01:38;99411.69;;;11.83;53.48
62011;BME280;47967;51.756;10.174;2024-03-08T16:05:41;99405.63;;;11.49;53.95
62011;BME280;47967;51.756;10.174;2024-03-08T16:09:45;99380.44;;;11.17;53.91
62011;BME280;47967;51.756;10.174;2024-03-08T16:13:48;99394.63;;;10.92;54.84
62011;BME280;47967;51.756;10.174;2024-03-08T16:17:52;99393.84;;;10.78;55.27
62011;BME280;47967;51.756;10.174;2024-03-08T16:21:55;99394.50;;;10.67;56.01
62011;BME280;47967;51.756;10.174;2024-03-08T16:25:59;99390.97;;;10.39;56.78
62011;BME280;47967;51.756;10.174;2024-03-08T16:30:02;99381.63;;;10.22;58.19
62011;BME280;47967;51.756;10.174;2024-03-08T16:34:11;99384.13;;;10.03;59.89
62011;BME280;47967;51.756;10.174;2024-03-08T16:38:16;99380.13;;;9.79;60.43
62011;BME280;47967;51.756;10.174;2024-03-08T16:42:19;99373.03;;;9.51;61.13
62011;BME280;47967;51.756;10.174;2024-03-08T16:46:22;99383.94;;;9.29;63.77
62011;BME280;47967;51.756;10.174;2024-03-08T16:50:27;99381.28;;;8.94;64.95
62011;BME280;47967;51.756;10.174;2024-03-08T16:54:32;99375.78;;;8.74;66.16
62011;BME280;47967;51.756;10.174;2024-03-08T16:58:52;99384.34;;;8.49;66.86
62011;BME280;47967;51.756;10.174;2024-03-08T17:02:55;99388.50;;;8.30;67.93
62011;BME280;47967;51.756;10.174;2024-03-08T17:07:00;99384.00;;;8.09;68.88
62011;BME280;47967;51.756;10.174;2024-03-08T17:11:04;99384.34;;;7.84;70.87
62011;BME280;47967;51.756;10.174;2024-03-08T17:15:10;99382.56;;;7.70;72.13
62011;BME280;47967;51.756;10.174;2024-03-08T17:19:13;99382.50;;;7.63;72.76
62011;BME280;47967;51.756;10.174;2024-03-08T17:23:18;99379.78;;;7.42;73.28
62011;BME280;47967;51.756;10.174;2024-03-08T17:27:22;99373.81;;;7.25;76.33
62011;BME280;47967;51.756;10.174;2024-03-08T17:31:26;99361.91;;;7.12;76.81
62011;BME280;47967;51.756;10.174;2024-03-08T17:35:29;99373.75;;;6.88;77.99
62011;BME280;47967;51.756;10.174;2024-03-08T17:39:34;99371.84;;;6.67;79.34
62011;BME280;47967;51.756;10.174;2024-03-08T17:43:38;99365.34;;;6.46;80.69
62011;BME280;47967;51.756;10.174;2024-03-08T17:47:40;99366.34;;;6.30;81.69
62011;BME280;47967;51.756;10.174;2024-03-08T17:51:43;99358.19;;;6.23;82.79
62011;BME280;47967;51.756;10.174;2024-03-08T17:55:47;99357.25;;;6.16;84.06
62011;BME280;47967;51.756;10.174;2024-03-08T17:59:53;99357.41;;;6.00;84.53
62011;BME280;47967;51.756;10.174;2024-03-08T18:03:56;99353.34;;;5.81;86.32
62011;BME280;47967;51.756;10.174;2024-03-08T18:08:02;99345.84;;;5.76;86.86
62011;BME280;47967;51.756;10.174;2024-03-08T18:12:06;99342.00;;;5.79;86.71
62011;BME280;47967;51.756;10.174;2024-03-08T18:16:10;99342.59;;;5.66;87.43
62011;BME280;47967;51.756;10.174;2024-03-08T18:20:13;99334.38;;;5.67;87.20
62011;BME280;47967;51.756;10.174;2024-03-08T18:24:16;99328.97;;;5.52;88.25
62011;BME280;47967;51.756;10.174;2024-03-08T18:28:21;99325.47;;;5.52;89.89
62011;BME280;47967;51.756;10.174;2024-03-08T18:32:23;99321.91;;;5.59;89.06
62011;BME280;47967;51.756;10.174;2024-03-08T18:36:27;99314.81;;;5.43;89.64
62011;BME280;47967;51.756;10.174;2024-03-08T18:40:31;99299.34;;;5.54;90.53
62011;BME280;47967;51.756;10.174;2024-03-08T18:44:35;99303.25;;;5.66;88.80
62011;BME280;47967;51.756;10.174;2024-03-08T18:48:38;99296.81;;;5.60;89.70
62011;BME280;47967;51.756;10.174;2024-03-08T18:52:41;99294.94;;;5.61;89.38
62011;BME280;47967;51.756;10.174;2024-03-08T18:56:45;99289.97;;;5.58;90.58
62011;BME280;47967;51.756;10.174;2024-03-08T19:00:51;99286.84;;;5.69;89.29
62011;BME280;47967;51.756;10.174;2024-03-08T19:04:53;99282.78;;;5.73;90.69
62011;BME280;47967;51.756;10.174;2024-03-08T19:08:58;99283.28;;;5.77;89.93
62011;BME280;47967;51.756;10.174;2024-03-08T19:13:05;99282.84;;;5.88;88.37
62011;BME280;47967;51.756;10.174;2024-03-08T19:17:11;99280.88;;;5.82;88.83
62011;BME280;47967;51.756;10.174;2024-03-08T19:21:14;99287.16;;;5.89;87.77
62011;BME280;47967;51.756;10.174;2024-03-08T19:25:17;99285.16;;;5.91;88.35
62011;BME280;47967;51.756;10.174;2024-03-08T19:29:21;99276.91;;;5.78;88.98
62011;BME280;47967;51.756;10.174;2024-03-08T19:33:27;99276.56;;;5.81;88.94
62011;BME280;47967;51.756;10.174;2024-03-08T19:37:33;99277.31;;;5.90;88.14
62011;BME280;47967;51.756;10.174;2024-03-08T19:41:36;99275.91;;;5.94;88.06
62011;BME280;47967;51.756;10.174;2024-03-08T19:45:39;99278.66;;;5.86;88.88
62011;BME280;47967;51.756;10.174;2024-03-08T19:49:43;99279.78;;;5.76;88.91
62011;BME280;47967;51.756;10.174;2024-03-08T19:53:46;99279.31;;;5.73;89.00
62011;BME280;47967;51.756;10.174;2024-03-08T19:57:50;99276.97;;;5.70;90.21
62011;BME280;47967;51.756;10.174;2024-03-08T20:01:56;99269.41;;;5.73;89.55
62011;BME280;47967;51.756;10.174;2024-03-08T20:06:00;99260.28;;;5.68;89.66
62011;BME280;47967;51.756;10.174;2024-03-08T20:10:07;99266.47;;;5.68;89.95
62011;BME280;47967;51.756;10.174;2024-03-08T20:14:12;99259.34;;;5.60;89.39
62011;BME280;47967;51.756;10.174;2024-03-08T20:18:15;99264.22;;;5.57;90.57
62011;BME280;47967;51.756;10.174;2024-03-08T20:22:22;99262.78;;;5.46;91.03
62011;BME280;47967;51.756;10.174;2024-03-08T20:26:24;99253.63;;;5.40;91.50
62011;BME280;47967;51.756;10.174;2024-03-08T20:30:27;99248.94;;;5.42;91.90
62011;BME280;47967;51.756;10.174;2024-03-08T20:34:31;99250.44;;;5.45;91.07
62011;BME280;47967;51.756;10.174;2024-03-08T20:38:36;99245.06;;;5.45;91.09
62011;BME280;47967;51.756;10.174;2024-03-08T20:42:41;99234.44;;;5.37;91.92
62011;BME280;47967;51.756;10.174;2024-03-08T20:46:43;99225.69;;;5.20;92.56
62011;BME280;47967;51.756;10.174;2024-03-08T20:50:46;99228.56;;;5.18;94.11
62011;BME280;47967;51.756;10.174;2024-03-08T20:54:51;99226.59;;;5.12;95.16
62011;BME280;47967;51.756;10.174;2024-03-08T20:58:53;99227.66;;;5.03;95.36
62011;BME280;47967;51.756;10.174;2024-03-08T21:02:56;99214.84;;;4.98;95.53
62011;BME280;47967;51.756;10.174;2024-03-08T21:06:59;99216.00;;;4.95;96.21
62011;BME280;47967;51.756;10.174;2024-03-08T21:11:03;99199.69;;;4.90;97.44
62011;BME280;47967;51.756;10.174;2024-03-08T21:15:06;99193.50;;;4.90;97.53
62011;BME280;47967;51.756;10.174;2024-03-08T21:19:10;99193.56;;;4.81;98.08
62011;BME280;47967;51.756;10.174;2024-03-08T21:23:13;99181.56;;;4.77;99.84
62011;BME280;47967;51.756;10.174;2024-03-08T21:27:17;99178.91;;;4.77;99.94
62011;BME280;47967;51.756;10.174;2024-03-08T21:31:20;99183.06;;;4.80;100.00
62011;BME280;47967;51.756;10.174;2024-03-08T21:35:25;99173.72;;;4.76;100.00
62011;BME280;47967;51.756;10.174;2024-03-08T21:39:27;99167.34;;;4.77;100.00
62011;BME280;47967;51.756;10.174;2024-03-08T21:43:33;99159.34;;;4.77;100.00
62011;BME280;47967;51.756;10.174;2024-03-08T21:47:36;99151.03;;;4.72;100.00
62011;BME280;47967;51.756;10.174;2024-03-08T21:51:40;99150.03;;;4.73;100.00
62011;BME280;47967;51.756;10.174;2024-03-08T21:55:47;99146.16;;;4.75;100.00
62011;BME280;47967;51.756;10.174;2024-03-08T21:59:52;99142.50;;;4.76;100.00
